• Join FlightAware (Why Join?)
  • Login
  • US Flag 
03:31PM EST


 

Airport Tracker/Info


-or-


 

Live Flight TrackerFlight Track Log ✈ UAE35 ✈ 04-May-2013 ✈ OMDB / DXB - EGNT / NCL

Flight Track Log - Related Links

Times and Time Zones

All times are in EDT time to prevent confusion due to time zone crossing. See the UAE35 flight status page for this flight to view local times or setup timezone preferences in your user account.

Time Position Orientation Groundspeed Altitude Reporting Facility
EDT Latitude Longitude Course Direction KTS MPH feet Rate Location/Type
11:39PM 25.2640 55.3510 310° West 187 215 400  Level FlightAware
11:40PM 25.2720 55.3360 301° West 193 222 1,000 2,520 Climbing FlightAware
11:40PM 25.2820 55.3190 303° West 186 214 2,100 3,600 Climbing FlightAware
11:40PM 25.2930 55.2980 300° West 181 208 3,400 2,280 Climbing FlightAware
11:41PM 25.3040 55.2800 304° West 200 230 4,000 1,320 Climbing FlightAware
11:41PM 25.3160 55.2580 301° West 242 278 4,400 2,820 Climbing FlightAware
11:42PM 25.3460 55.1940 297° West 279 321 7,100 3,480 Climbing FlightAware
11:42PM 25.3420 55.1590 263° West 282 325 8,500 3,420 Climbing FlightAware
11:43PM 25.3420 55.0940 270° West 290 334 11,100 2,640 Climbing FlightAware
11:44PM 25.3500 55.0280 278° West 343 395 12,300 2,160 Climbing FlightAware
11:44PM 25.3610 54.9460 278° West 370 426 14,200 2,880 Climbing FlightAware
11:45PM 25.3700 54.8720 278° West 376 433 16,400 3,120 Climbing FlightAware
11:46PM 25.3810 54.7940 279° West 384 442 18,400 2,040 Climbing FlightAware
11:47PM 25.4040 54.6930 284° West 391 450 19,700 780 Climbing FlightAware
11:47PM 25.4200 54.6270 285° West 391 450 19,700  Level FlightAware
11:48PM 25.4360 54.5610 285° West 391 450 19,700  Level FlightAware
11:49PM 25.4560 54.4790 285° West 391 450 19,700  Level FlightAware
11:50PM 25.4720 54.4130 285° West 391 450 19,700 5,820 Level FlightAware
11:50PM 25.5150 54.2410 286° West 423 487 28,500 7,080 Climbing FlightAware
11:51PM 25.5390 54.1420 285° West 426 490 31,000 1,620 Climbing FlightAware
11:52PM 25.5580 54.0530 283° West 426 490 31,000 2,040 Level FlightAware
11:53PM 25.5840 53.9580 287° West 418 481 34,100 2,940 Climbing FlightAware
11:53PM 25.6040 53.8740 285° West 416 479 35,200 1,380 Climbing FlightAware
11:54PM 25.6240 53.7910 285° West 412 474 36,000 540 Climbing FlightAware
11:55PM 25.6460 53.6970 285° West 410 472 36,000  Level FlightAware
11:55PM 25.6650 53.6170 285° West 409 471 36,000  Level FlightAware
11:56PM 25.6870 53.5260 285° West 409 471 36,000  Level FlightAware
11:57PM 25.7060 53.4440 284° West 410 472 36,000  Level FlightAware
11:57PM 25.7260 53.3610 285° West 410 472 36,000  Level FlightAware
11:58PM 25.7450 53.2700 283° West 409 471 36,000  Level FlightAware
11:59PM 25.7540 53.1870 277° West 405 466 36,000  Level FlightAware
12:00AM 25.7620 53.1030 276° West 404 465 36,000  Level FlightAware
12:00AM 25.7920 53.0150 291° West 428 493 36,000  Level FlightAware
12:01AM 25.8300 52.9360 298° West 431 496 36,000  Level FlightAware
12:02AM 25.8730 52.8490 299° West 426 490 36,000  Level FlightAware
12:02AM 25.9110 52.7700 298° West 424 488 36,000  Level FlightAware
12:03AM 25.9470 52.6940 298° West 424 488 36,000  Level FlightAware
12:04AM 25.9900 52.6060 299° West 424 488 36,000  Level FlightAware
12:04AM 26.0270 52.5280 298° West 424 488 36,000  Level FlightAware
12:05AM 26.0690 52.4400 298° West 423 487 36,000  Level FlightAware
12:06AM 26.1040 52.3660 298° West 423 487 36,000  Level FlightAware
12:07AM 26.1410 52.2880 298° West 424 488 36,000  Level FlightAware
12:07AM 26.1830 52.1990 298° West 423 487 36,000  Level FlightAware
12:08AM 26.2200 52.1220 298° West 425 489 36,000  Level FlightAware
12:09AM 26.2560 52.0460 298° West 424 488 36,000  Level FlightAware
12:09AM 26.2980 51.9560 298° West 423 487 36,000  Level FlightAware
12:10AM 26.3350 51.8780 298° West 420 483 36,000  Level FlightAware
12:11AM 26.3720 51.7990 298° West 420 483 36,000  Level FlightAware
12:11AM 26.4110 51.7150 297° West 420 483 36,000  Level FlightAware
12:12AM 26.4500 51.6310 297° West 420 483 36,000  Level FlightAware
12:13AM 26.4850 51.5560 298° West 418 481 36,000  Level FlightAware
12:14AM 26.5220 51.4770 298° West 420 483 36,000  Level FlightAware
12:14AM 26.5570 51.4010 297° West 420 483 36,000  Level FlightAware
12:15AM 26.5940 51.3200 297° West 419 482 36,000  Level FlightAware
12:16AM 26.6330 51.2270 295° West 411 473 36,000  Level FlightAware
12:16AM 26.6650 51.1460 294° West 415 478 36,000  Level FlightAware
12:17AM 26.6950 51.0670 293° West 414 476 36,000  Level FlightAware
12:17AM 26.7140 51.0190 294° West 414 476 36,000  Level FlightAware
12:18AM 26.7490 50.9290 294° West 413 475 36,000  Level FlightAware
12:19AM 26.7790 50.8520 294° West 413 475 36,000  Level FlightAware
12:20AM 26.8160 50.7560 293° West 413 475 36,000  Level FlightAware
12:20AM 26.8440 50.6840 294° West 414 476 36,000  Level FlightAware
12:21AM 26.8710 50.6140 293° West 414 476 36,000  Level FlightAware
12:22AM 26.9090 50.5120 293° West 414 476 36,000  Level FlightAware
12:22AM 26.9350 50.4450 294° West 414 476 36,000  Level FlightAware
12:23AM 26.9600 50.3780 293° West 414 476 36,000  Level FlightAware
12:24AM 26.9860 50.3100 293° West 414 476 36,000  Level FlightAware
12:25AM 27.0170 50.2260 293° West 414 476 36,000  Level FlightAware
12:25AM 27.0430 50.1590 294° West 414 476 36,000  Level FlightAware
12:26AM 27.0680 50.0920 293° West 414 476 36,000  Level FlightAware
12:27AM 27.0940 50.0240 293° West 414 476 36,000  Level FlightAware
12:27AM 27.1190 49.9570 293° West 414 476 36,000  Level FlightAware
12:28AM 27.1510 49.8730 293° West 414 476 36,000  Level FlightAware
12:29AM 27.1760 49.8060 293° West 414 476 36,000  Level FlightAware
12:29AM 27.2020 49.7380 293° West 414 476 36,000  Level FlightAware
12:30AM 27.2270 49.6710 293° West 414 476 36,000  Level FlightAware
12:31AM 27.2530 49.6030 293° West 414 476 36,000  Level FlightAware
12:33AM 27.4051 49.4672 322° Northwest  Level Estimated
12:33AM 27.8400 49.4910 322° Northwest 473 544 36,000  Level FlightAware
12:33AM 27.9310 49.4270 328° Northwest 473 544 36,000  Level FlightAware
12:34AM 27.9980 49.3810 329° Northwest 472 543 36,000  Level FlightAware
12:35AM 28.0790 49.3240 328° Northwest 468 539 36,000  Level FlightAware
12:36AM 28.1560 49.2700 328° Northwest 468 539 36,000  Level FlightAware
12:36AM 28.2320 49.2160 328° Northwest 469 540 36,000  Level FlightAware
12:37AM 28.3120 49.1590 328° Northwest 470 541 36,000  Level FlightAware
12:38AM 28.3850 49.1060 327° Northwest 473 544 36,000  Level FlightAware
12:38AM 28.4750 49.0420 328° Northwest 473 544 36,000  Level FlightAware
12:39AM 28.5480 48.9900 328° Northwest 469 540 36,000  Level FlightAware
12:40AM 28.6080 48.9470 328° Northwest 471 542 36,000  Level FlightAware
12:40AM 28.7010 48.8810 328° Northwest 472 543 36,000  Level FlightAware
12:41AM 28.7560 48.8410 327° Northwest 472 543 36,000  Level FlightAware
12:42AM 28.8540 48.7710 328° Northwest 473 544 36,000  Level FlightAware
12:43AM 28.9300 48.7160 328° Northwest 472 543 36,000  Level FlightAware
12:43AM 28.9990 48.6670 328° Northwest 473 544 36,000  Level FlightAware
12:44AM 29.0860 48.6030 327° Northwest 477 549 36,000  Level FlightAware
12:45AM 29.1470 48.5590 328° Northwest 478 550 36,000  Level FlightAware
12:45AM 29.2360 48.4950 328° Northwest 478 550 36,000  Level FlightAware
12:46AM 29.3190 48.4340 327° Northwest 471 542 36,000  Level FlightAware
12:47AM 29.4020 48.3740 328° Northwest 470 541 36,000  Level FlightAware
12:47AM 29.4610 48.3310 328° Northwest 471 542 36,000  Level FlightAware
12:48AM 29.5330 48.2770 327° Northwest 471 542 36,000  Level FlightAware
12:49AM 29.6250 48.2100 328° Northwest 475 547 36,000  Level FlightAware
12:49AM 29.7000 48.1560 328° Northwest 476 548 36,000  Level FlightAware
12:50AM 29.7760 48.0990 327° Northwest 474 545 36,000  Level FlightAware
12:51AM 29.8600 48.0380 328° Northwest 473 544 36,000  Level FlightAware
12:52AM 29.9330 47.9840 327° Northwest 474 545 36,000  Level FlightAware
12:52AM 29.9980 47.9350 327° Northwest 471 542 36,000  Level FlightAware
12:53AM 30.0740 47.8500 316° Northwest 453 521 36,000  Level FlightAware
12:54AM 30.1520 47.7440 310° West 453 521 36,000  Level FlightAware
12:55AM 30.2060 47.6730 311° West 456 525 36,000  Level FlightAware
12:55AM 30.2600 47.5980 310° West 456 525 36,000  Level FlightAware
12:56AM 30.3060 47.5340 310° West 456 525 36,000  Level FlightAware
12:57AM 30.3520 47.4700 310° West 456 525 36,000  Level FlightAware
12:57AM 30.3980 47.4070 310° West 456 525 36,000  Level FlightAware
12:58AM 30.4330 47.3590 310° West 456 525 36,000  Level FlightAware
12:59AM 30.4790 47.2950 310° West 456 525 36,000  Level FlightAware
12:59AM 30.5370 47.2160 310° West 456 525 36,000  Level FlightAware
01:00AM 30.5830 47.1520 310° West 456 525 36,000  Level FlightAware
01:01AM 30.6290 47.0880 310° West 456 525 36,000  Level FlightAware
01:01AM 30.6750 47.0240 310° West 456 525 36,000  Level FlightAware
01:02AM 30.7210 46.9600 310° West 456 525 36,000  Level FlightAware
01:03AM 30.7790 46.8800 310° West 456 525 36,000  Level FlightAware
01:04AM 30.8250 46.8160 310° West 456 525 36,000  Level FlightAware
01:04AM 30.8710 46.7520 310° West 456 525 36,000  Level FlightAware
01:07AM 31.0702 46.5557 320° Northwest  Level Estimated
01:08AM 31.1574 46.4694 320° Northwest  Level Estimated
01:09AM 31.2445 46.3830 320° Northwest  Level Estimated
01:10AM 31.3315 46.2964 320° Northwest  Level Estimated
01:11AM 31.4185 46.2097 320° Northwest  Level Estimated
01:12AM 31.5054 46.1228 320° Northwest  Level Estimated
01:13AM 31.5923 46.0358 320° Northwest  Level Estimated
01:14AM 31.6791 45.9486 319° Northwest  Level Estimated
01:15AM 31.7659 45.8612 319° Northwest  Level Estimated
01:16AM 31.8526 45.7737 319° Northwest  Level Estimated
01:17AM 31.9392 45.6860 319° Northwest  Level Estimated
01:18AM 32.0258 45.5981 319° Northwest  Level Estimated
01:19AM 32.1123 45.5101 319° Northwest  Level Estimated
01:19AM 32.5200 45.1410 319° Northwest 486 559 36,000  Level FlightAware
01:20AM 32.6220 45.0930 338° Northwest 488 562 36,000  Level FlightAware
01:21AM 32.7100 45.0430 334° Northwest 488 562 36,000  Level FlightAware
01:21AM 32.7930 44.9930 333° Northwest 489 563 36,000  Level FlightAware
01:22AM 32.8730 44.9440 333° Northwest 489 563 36,000  Level FlightAware
01:23AM 32.9660 44.8870 333° Northwest 488 562 36,000  Level FlightAware
01:23AM 33.0480 44.8370 333° Northwest 488 562 36,000  Level FlightAware
01:24AM 33.1360 44.7830 333° Northwest 487 560 36,000  Level FlightAware
01:25AM 33.2170 44.7370 335° Northwest 486 559 36,000  Level FlightAware
01:26AM 33.3150 44.6970 341° North 488 562 36,000  Level FlightAware
01:26AM 33.4010 44.6650 343° North 488 562 36,000  Level FlightAware
01:27AM 33.4970 44.6300 343° North 488 562 36,000  Level FlightAware
01:28AM 33.5810 44.5930 340° North 489 563 36,000  Level FlightAware
01:28AM 33.6660 44.5520 338° Northwest 487 560 36,000  Level FlightAware
01:29AM 33.7590 44.5060 338° Northwest 483 556 36,000  Level FlightAware
01:30AM 33.8430 44.4650 338° Northwest 483 556 36,000  Level FlightAware
01:30AM 33.9310 44.4210 337° Northwest 481 554 36,000  Level FlightAware
01:31AM 34.0150 44.3800 338° Northwest 477 549 36,000  Level FlightAware
01:32AM 34.0970 44.3390 338° Northwest 474 545 36,000  Level FlightAware
01:33AM 34.1920 44.2920 338° Northwest 474 545 36,000  Level FlightAware
01:33AM 34.2710 44.2520 337° Northwest 478 550 36,000  Level FlightAware
01:34AM 34.3520 44.2120 338° Northwest 479 551 36,000  Level FlightAware
01:35AM 34.4450 44.1650 337° Northwest 481 554 36,000  Level FlightAware
01:35AM 34.5280 44.1230 337° Northwest 483 556 36,000  Level FlightAware
01:36AM 34.6220 44.0740 337° Northwest 480 552 36,000  Level FlightAware
01:37AM 34.7010 44.0330 337° Northwest 477 549 36,000  Level FlightAware
01:37AM 34.7850 43.9880 336° Northwest 475 547 36,000  Level FlightAware
01:38AM 34.8740 43.9410 337° Northwest 477 549 36,000  Level FlightAware
01:39AM 34.9540 43.8990 337° Northwest 475 547 36,000  Level FlightAware
01:40AM 35.0480 43.8500 337° Northwest 473 544 36,000  Level FlightAware
01:40AM 35.1240 43.8090 336° Northwest 472 543 36,000  Level FlightAware
01:41AM 35.2050 43.7660 337° Northwest 471 542 36,000  Level FlightAware
01:42AM 35.2970 43.7170 337° Northwest 472 543 36,000  Level FlightAware
01:42AM 35.3780 43.6740 337° Northwest 473 544 36,000  Level FlightAware
01:43AM 35.4670 43.6270 337° Northwest 474 545 36,000  Level FlightAware
01:44AM 35.5480 43.5830 336° Northwest 476 548 36,000  Level FlightAware
01:44AM 35.6270 43.5410 337° Northwest 476 548 36,000  Level FlightAware
01:45AM 35.7170 43.4930 337° Northwest 476 548 36,000  Level FlightAware
01:46AM 35.7990 43.4490 336° Northwest 478 550 36,000  Level FlightAware
01:46AM 35.8830 43.4040 337° Northwest 479 551 36,000  Level FlightAware
01:47AM 35.9740 43.3540 336° Northwest 481 554 36,000  Level FlightAware
01:48AM 36.0550 43.3100 336° Northwest 483 556 36,000  Level FlightAware
01:49AM 36.1480 43.2600 337° Northwest 483 556 36,000  Level FlightAware
01:49AM 36.2260 43.2170 336° Northwest 483 556 36,000  Level FlightAware
01:50AM 36.3210 43.1650 336° Northwest 483 556 36,000  Level FlightAware
01:51AM 36.4000 43.1200 335° Northwest 483 556 36,000  Level FlightAware
01:51AM 36.4850 43.0740 336° Northwest 484 557 36,000  Level FlightAware
01:52AM 36.5770 43.0220 336° Northwest 485 558 36,000  Level FlightAware
01:53AM 36.6590 42.9770 336° Northwest 485 558 36,000  Level FlightAware
01:54AM 36.7510 42.9260 336° Northwest 485 558 36,000  Level FlightAware
01:54AM 36.8310 42.8810 336° Northwest 485 558 36,000  Level FlightAware
01:55AM 36.9140 42.8360 337° Northwest 485 558 36,000  Level FlightAware
01:56AM 37.0080 42.7830 336° Northwest 483 556 36,000  Level FlightAware
01:56AM 37.0870 42.7400 337° Northwest 482 555 36,000  Level FlightAware
01:57AM 37.1800 42.6880 336° Northwest 480 552 36,000  Level FlightAware
01:58AM 37.2560 42.6300 329° Northwest 482 555 36,000  Level FlightAware
01:58AM 37.3130 42.5440 310° West 480 552 36,000  Level FlightAware
01:59AM 37.3730 42.4430 307° West 479 551 36,000  Level FlightAware
02:00AM 37.4260 42.3540 307° West 480 552 36,000  Level FlightAware
02:01AM 37.4850 42.2550 307° West 478 550 36,000  Level FlightAware
02:01AM 37.5370 42.1670 307° West 476 548 36,000  Level FlightAware
02:02AM 37.5950 42.0690 307° West 476 548 36,000  Level FlightAware
02:03AM 37.6500 41.9760 307° West 473 544 36,000  Level FlightAware
02:03AM 37.7010 41.8910 307° West 471 542 36,000  Level FlightAware
02:04AM 37.7590 41.7910 306° West 469 540 36,000  Level FlightAware
02:05AM 37.8110 41.7030 307° West 467 537 36,000  Level FlightAware
02:05AM 37.8690 41.6040 307° West 467 537 36,000  Level FlightAware
02:06AM 37.9200 41.5150 306° West 467 537 36,000  Level FlightAware
02:07AM 37.9660 41.4360 306° West 467 537 36,000 60 Level FlightAware
02:08AM 38.0290 41.3280 307° West 469 540 36,100 660 Climbing FlightAware
02:08AM 38.0810 41.2380 306° West 470 541 37,000 1,080 Climbing FlightAware
02:09AM 38.1360 41.1420 306° West 476 548 37,700 600 Climbing FlightAware
02:10AM 38.1850 41.0570 306° West 479 551 37,900 120 Climbing FlightAware
02:10AM 38.2290 40.9790 306° West 479 551 37,900  Level FlightAware
02:11AM 38.2730 40.9020 306° West 479 551 37,900  Level FlightAware
02:12AM 38.3180 40.8240 306° West 479 551 37,900  Level FlightAware
02:12AM 38.3620 40.7460 306° West 479 551 37,900  Level FlightAware
02:13AM 38.4170 40.6490 306° West 479 551 37,900  Level FlightAware
02:14AM 38.4620 40.5710 306° West 479 551 37,900  Level FlightAware
02:14AM 38.5060 40.4930 306° West 479 551 37,900  Level FlightAware
02:15AM 38.5500 40.4150 306° West 479 551 37,900  Level FlightAware
02:16AM 38.6060 40.3180 306° West 479 551 37,900  Level FlightAware
02:17AM 38.6500 40.2400 306° West 479 551 37,900  Level FlightAware
02:17AM 38.6940 40.1620 306° West 479 551 37,900  Level FlightAware
02:18AM 38.7390 40.0840 307° West 479 551 37,900  Level FlightAware
02:19AM 38.7830 40.0060 306° West 479 551 37,900  Level FlightAware
02:21AM 38.9315 39.8095 314° West  Level Estimated
02:22AM 39.0109 39.7039 314° West  Level Estimated
02:23AM 39.0903 39.5981 314° West  Level Estimated
02:24AM 39.1695 39.4920 314° West  Level Estimated
02:25AM 39.2487 39.3857 314° West  Level Estimated
02:26AM 39.3277 39.2792 314° West  Level Estimated
02:27AM 39.4067 39.1724 314° West  Level Estimated
02:28AM 39.4855 39.0653 314° West  Level Estimated
02:29AM 39.5643 38.9581 314° West  Level Estimated
02:30AM 39.6429 38.8506 314° West  Level Estimated
02:31AM 39.7215 38.7428 313° West  Level Estimated
02:32AM 39.7999 38.6348 313° West  Level Estimated
02:33AM 39.8783 38.5265 313° West  Level Estimated
02:34AM 39.9565 38.4180 313° West  Level Estimated
02:35AM 40.0347 38.3093 313° West  Level Estimated
02:36AM 40.1127 38.2003 313° West  Level Estimated
02:37AM 40.1907 38.0910 313° West  Level Estimated
02:38AM 40.2685 37.9815 313° West  Level Estimated
02:39AM 40.3463 37.8718 313° West  Level Estimated
02:40AM 40.4239 37.7618 313° West  Level Estimated
02:41AM 40.5014 37.6515 313° West  Level Estimated
02:42AM 40.5789 37.5410 313° West  Level Estimated
02:43AM 40.6562 37.4302 313° West  Level Estimated
02:44AM 40.7334 37.3192 313° West  Level Estimated
02:45AM 40.8105 37.2079 312° West  Level Estimated
02:46AM 40.8875 37.0964 312° West  Level Estimated
02:47AM 40.9644 36.9845 312° West  Level Estimated
02:48AM 41.0412 36.8725 312° West  Level Estimated
02:49AM 41.1179 36.7601 312° West  Level Estimated
02:50AM 41.1944 36.6475 312° West  Level Estimated
02:51AM 41.2709 36.5347 312° West  Level Estimated
02:52AM 41.3473 36.4216 312° West  Level Estimated
02:53AM 41.4235 36.3082 312° West  Level Estimated
02:54AM 41.4996 36.1945 312° West  Level Estimated
02:55AM 41.5756 36.0806 312° West  Level Estimated
02:55AM 41.4790 34.7310 312° West 470 541 38,000  Level FlightAware
02:55AM 41.5280 34.6270 302° West 470 541 38,000  Level FlightAware
02:56AM 41.5900 34.4940 302° West 472 543 38,000  Level FlightAware
02:57AM 41.6520 34.3600 302° West 474 545 38,000  Level FlightAware
02:58AM 41.7040 34.2470 302° West 475 547 38,000  Level FlightAware
02:58AM 41.7500 34.1470 302° West 474 545 38,000  Level FlightAware
02:59AM 41.8000 34.0390 302° West 475 547 38,000  Level FlightAware
03:00AM 41.8400 33.9500 301° West 475 547 38,000  Level FlightAware
03:00AM 41.8780 33.8640 301° West 475 547 38,000  Level FlightAware
03:01AM 41.9400 33.7290 302° West 477 549 38,000  Level FlightAware
03:02AM 41.9780 33.6090 293° West 476 548 38,000  Level FlightAware
03:03AM 42.0060 33.5050 290° West 477 549 38,000  Level FlightAware
03:03AM 42.0390 33.3790 289° West 475 547 38,000  Level FlightAware
03:04AM 42.0740 33.2460 290° West 474 545 38,000  Level FlightAware
03:05AM 42.1040 33.1360 290° West 475 547 38,000  Level FlightAware
03:05AM 42.1250 33.0530 289° West 473 544 38,000  Level FlightAware
03:06AM 42.1550 32.9410 290° West 473 544 38,000  Level FlightAware
03:07AM 42.1830 32.8340 289° West 474 545 38,000  Level FlightAware
03:07AM 42.2130 32.7180 289° West 476 548 38,000  Level FlightAware
03:08AM 42.2540 32.5590 289° West 475 547 38,000  Level FlightAware
03:09AM 42.2780 32.4650 289° West 474 545 38,000  Level FlightAware
03:09AM 42.3060 32.3570 289° West 475 547 38,000  Level FlightAware
03:10AM 42.3350 32.2430 289° West 475 547 38,000  Level FlightAware
03:11AM 42.3730 32.0930 289° West 472 543 38,000  Level FlightAware
03:12AM 42.4040 31.9710 289° West 473 544 38,000  Level FlightAware
03:13AM 42.4400 31.8230 288° West 473 544 38,000  Level FlightAware
03:14AM 42.4810 31.6630 289° West 473 544 38,000  Level FlightAware
03:14AM 42.5170 31.5150 288° West 474 545 38,000  Level FlightAware
03:15AM 42.5490 31.3860 289° West 475 547 38,000  Level FlightAware
03:16AM 42.5750 31.2800 288° West 475 547 38,000  Level FlightAware
03:17AM 42.6170 31.1060 288° West 474 545 38,000  Level FlightAware
03:18AM 42.6400 31.0100 288° West 474 545 38,000  Level FlightAware
03:18AM 42.6630 30.9140 288° West 474 545 38,000  Level FlightAware
03:19AM 42.6860 30.8170 288° West 474 545 38,000  Level FlightAware
03:20AM 42.7270 30.6490 288° West 474 545 38,000  Level FlightAware
03:20AM 42.7670 30.5320 295° West 474 545 38,000  Level FlightAware
03:21AM 42.8050 30.4460 301° West 478 550 38,000  Level FlightAware
03:22AM 42.8730 30.2870 300° West 473 544 38,000  Level FlightAware
03:23AM 42.9110 30.1990 301° West 473 544 38,000  Level FlightAware
03:24AM 42.9820 30.0400 301° West 475 547 38,000  Level FlightAware
03:25AM 43.0500 29.8830 301° West 475 547 38,000  Level FlightAware
03:25AM 43.0910 29.7880 301° West 38,000  Level FlightAware
03:26AM 43.1600 29.6290 301° West 474 545 38,000  Level FlightAware
03:27AM 43.1960 29.5440 300° West 474 545 38,000  Level FlightAware
03:28AM 43.2550 29.4040 300° West 473 544 38,000  Level FlightAware
03:28AM 43.3020 29.2940 300° West 472 543 38,000  Level FlightAware
03:29AM 43.3450 29.1920 300° West 472 543 38,000  Level FlightAware
03:30AM 43.3900 29.0840 300° West 473 544 38,000  Level FlightAware
03:30AM 43.4330 28.9830 300° West 474 545 38,000  Level FlightAware
03:31AM 43.4790 28.8710 300° West 476 548 38,000  Level FlightAware
03:32AM 43.5300 28.7480 300° West 477 549 38,000  Level FlightAware
03:32AM 43.5740 28.6420 300° West 476 548 38,000  Level FlightAware
03:33AM 43.6160 28.5420 300° West 473 544 38,000  Level FlightAware
03:34AM 43.6560 28.4440 299° West 472 543 38,000  Level FlightAware
03:35AM 43.7070 28.3200 300° West 472 543 38,000  Level FlightAware
03:35AM 43.7490 28.2160 299° West 471 542 38,000  Level FlightAware
03:36AM 43.8000 28.0910 300° West 472 543 38,000  Level FlightAware
03:37AM 43.8400 27.9920 299° West 472 543 38,000  Level FlightAware
03:37AM 43.8910 27.8650 299° West 472 543 38,000  Level FlightAware
03:38AM 43.9350 27.7560 299° West 473 544 38,000  Level FlightAware
03:39AM 43.9780 27.6500 299° West 475 547 38,000  Level FlightAware
03:39AM 44.0120 27.5660 299° West 476 548 38,000  Level FlightAware
03:40AM 44.0620 27.4610 304° West 478 550 38,000  Level FlightAware
03:41AM 44.1130 27.3570 304° West 477 549 38,000  Level FlightAware
03:41AM 44.1720 27.2350 304° West 479 551 38,000  Level FlightAware
03:42AM 44.2090 27.1600 305° West 478 550 38,000  Level FlightAware
03:43AM 44.2600 27.0530 304° West 477 549 38,000  Level FlightAware
03:43AM 44.3110 26.9520 305° West 478 550 38,000  Level FlightAware
03:44AM 44.3620 26.8560 307° West 477 549 38,000  Level FlightAware
03:45AM 44.4200 26.7510 308° West 477 549 38,000  Level FlightAware
03:46AM 44.4880 26.6250 307° West 478 550 38,000  Level FlightAware
03:46AM 44.5470 26.5180 308° West 478 550 38,000  Level FlightAware
03:47AM 44.5840 26.4490 307° West 477 549 38,000  Level FlightAware
03:47AM 44.6320 26.3610 307° West 478 550 38,000  Level FlightAware
03:48AM 44.6740 26.2840 308° West 479 551 38,000  Level FlightAware
03:49AM 44.7490 26.1430 307° West 479 551 38,000  Level FlightAware
03:49AM 44.8030 26.0430 307° West 480 552 38,000  Level FlightAware
03:50AM 44.8500 25.9530 306° West 482 555 38,000  Level FlightAware
03:51AM 44.9170 25.8280 307° West 483 556 38,000  Level FlightAware
03:51AM 44.9570 25.7530 307° West 483 556 38,000  Level FlightAware
03:52AM 45.0110 25.6500 307° West 483 556 38,000  Level FlightAware
03:53AM 45.0550 25.5660 307° West 483 556 38,000  Level FlightAware
03:53AM 45.1120 25.4580 307° West 481 554 38,000  Level FlightAware
03:54AM 45.1720 25.3420 306° West 482 555 38,000  Level FlightAware
03:55AM 45.2210 25.2480 307° West 484 557 38,000  Level FlightAware
03:55AM 45.2840 25.1260 306° West 483 556 38,000  Level FlightAware
03:56AM 45.3400 25.0170 306° West 482 555 38,000  Level FlightAware
03:57AM 45.3850 24.9300 306° West 479 551 38,000  Level FlightAware
03:58AM 45.4470 24.8080 306° West 478 550 38,000  Level FlightAware
03:58AM 45.4980 24.7090 306° West 479 551 38,000  Level FlightAware
03:59AM 45.5540 24.5990 306° West 480 552 38,000  Level FlightAware
04:00AM 45.6040 24.4990 306° West 482 555 38,000  Level FlightAware
04:00AM 45.6580 24.3930 306° West 483 556 38,000  Level FlightAware
04:01AM 45.7010 24.3060 305° West 484 557 38,000  Level FlightAware
04:01AM 45.7460 24.2180 306° West 485 558 38,000  Level FlightAware
04:03AM 45.8610 23.9860 305° West 487 560 38,000  Level FlightAware
04:04AM 45.9400 23.8270 306° West 483 556 38,000  Level FlightAware
04:04AM 45.9850 23.7360 305° West 480 552 38,000  Level FlightAware
04:06AM 46.0950 23.5110 305° West 480 552 38,000  Level FlightAware
04:07AM 46.1440 23.4100 305° West 483 556 38,000  Level FlightAware
04:07AM 46.1950 23.3050 305° West 484 557 38,000  Level FlightAware
04:08AM 46.2530 23.1850 305° West 482 555 38,000  Level FlightAware
04:09AM 46.3020 23.0840 305° West 480 552 38,000  Level FlightAware
04:09AM 46.3470 22.9900 305° West 480 552 38,000  Level FlightAware
04:10AM 46.4030 22.8720 305° West 478 550 38,000  Level FlightAware
04:11AM 46.4530 22.7670 305° West 478 550 38,000  Level FlightAware
04:11AM 46.5060 22.6560 305° West 477 549 38,000  Level FlightAware
04:12AM 46.5490 22.5640 304° West 478 550 38,000  Level FlightAware
04:13AM 46.6060 22.4430 304° West 479 551 38,000  Level FlightAware
04:13AM 46.6580 22.3330 305° West 478 550 38,000  Level FlightAware
04:14AM 46.7010 22.2400 304° West 478 550 38,000  Level FlightAware
04:15AM 46.7550 22.1250 304° West 473 544 38,000  Level FlightAware
04:15AM 46.8090 22.0080 304° West 475 547 38,000  Level FlightAware
04:16AM 46.8520 21.9150 304° West 476 548 38,000  Level FlightAware
04:16AM 46.8890 21.8350 304° West 477 549 38,000  Level FlightAware
04:17AM 46.9410 21.7200 304° West 479 551 38,000  Level FlightAware
04:18AM 46.9970 21.5980 304° West 480 552 38,000  Level FlightAware
04:19AM 47.0490 21.4900 305° West 488 562 38,000  Level FlightAware
04:19AM 47.0960 21.3970 307° West 489 563 38,000  Level FlightAware
04:20AM 47.1500 21.2920 307° West 488 562 38,000  Level FlightAware
04:21AM 47.2120 21.1700 307° West 485 558 38,000  Level FlightAware
04:21AM 47.2530 21.0910 307° West 484 557 38,000  Level FlightAware
04:22AM 47.3060 20.9860 307° West 483 556 38,000  Level FlightAware
04:22AM 47.3600 20.8790 307° West 482 555 38,000  Level FlightAware
04:23AM 47.4190 20.7620 307° West 482 555 38,000  Level FlightAware
04:24AM 47.4710 20.6560 306° West 477 549 38,000  Level FlightAware
04:24AM 47.5250 20.5480 307° West 478 550 38,000  Level FlightAware
04:25AM 47.5840 20.4300 307° West 479 551 38,000  Level FlightAware
04:26AM 47.6570 20.2810 306° West 480 552 38,000  Level FlightAware
04:27AM 47.7020 20.1900 306° West 480 552 38,000  Level FlightAware
04:27AM 47.7490 20.0940 306° West 480 552 38,000  Level FlightAware
04:28AM 47.7940 20.0030 306° West 477 549 38,000  Level FlightAware
04:29AM 47.8530 19.8810 306° West 477 549 38,000  Level FlightAware
04:29AM 47.8850 19.8150 306° West 478 550 38,000  Level FlightAware
04:30AM 47.9440 19.6930 306° West 479 551 38,000  Level FlightAware
04:31AM 48.0340 19.5040 306° West 477 549 38,000  Level FlightAware
04:32AM 48.1310 19.3020 306° West 477 549 38,000  Level FlightAware
04:33AM 48.2220 19.1100 305° West 479 551 38,000  Level FlightAware
04:34AM 48.2720 19.0020 305° West 475 547 38,000  Level FlightAware
04:35AM 48.3340 18.8710 305° West 467 537 38,000  Level FlightAware
04:36AM 48.4290 18.6660 305° West 473 544 38,000  Level FlightAware
04:37AM 48.4870 18.5420 305° West 467 537 38,000  Level FlightAware
04:38AM 48.5290 18.4500 305° West 466 536 38,000  Level FlightAware
04:38AM 48.5790 18.3410 305° West 466 536 38,000  Level FlightAware
04:39AM 48.6350 18.2200 305° West 467 537 38,000  Level FlightAware
04:40AM 48.7020 18.0720 304° West 469 540 38,000  Level FlightAware
04:41AM 48.7490 17.9670 304° West 469 540 38,000  Level FlightAware
04:41AM 48.8100 17.8320 304° West 474 545 38,000  Level FlightAware
04:42AM 48.8470 17.7480 304° West 474 545 38,000  Level FlightAware
04:42AM 48.8880 17.6280 297° West 472 543 38,000  Level FlightAware
04:43AM 48.9280 17.4880 294° West 470 541 38,000  Level FlightAware
04:44AM 48.9660 17.3530 293° West 472 543 38,000  Level FlightAware
04:45AM 48.9990 17.2330 293° West 472 543 38,000  Level FlightAware
04:45AM 49.0300 17.1230 293° West 469 540 38,000  Level FlightAware
04:46AM 49.0560 17.0310 293° West 468 539 38,000  Level FlightAware
04:46AM 49.0920 16.9040 293° West 467 537 38,000  Level FlightAware
04:47AM 49.1260 16.7800 293° West 468 539 38,000  Level FlightAware
04:48AM 49.1590 16.6600 293° West 468 539 38,000  Level FlightAware
04:48AM 49.1910 16.5540 295° West 469 540 38,000  Level FlightAware
04:49AM 49.2320 16.4180 295° West 471 542 38,000  Level FlightAware
04:50AM 49.2690 16.2920 294° West 471 542 38,000  Level FlightAware
04:50AM 49.3030 16.1770 294° West 470 541 38,000  Level FlightAware
04:51AM 49.3420 16.0440 294° West 469 540 38,000  Level FlightAware
04:52AM 49.4090 15.8110 294° West 470 541 38,000  Level FlightAware
04:53AM 49.4360 15.7180 294° West 470 541 38,000  Level FlightAware
04:54AM 49.4660 15.6140 294° West 469 540 38,000  Level FlightAware
04:54AM 49.4930 15.5190 294° West 468 539 38,000  Level FlightAware
04:55AM 49.5310 15.3840 293° West 466 536 38,000  Level FlightAware
04:55AM 49.5660 15.2610 294° West 467 537 38,000  Level FlightAware
04:56AM 49.5970 15.1510 294° West 466 536 38,000  Level FlightAware
04:57AM 49.6340 15.0160 293° West 466 536 38,000  Level FlightAware
04:57AM 49.6600 14.9250 294° West 466 536 38,000  Level FlightAware
04:58AM 49.6920 14.8080 293° West 466 536 38,000  Level FlightAware
04:59AM 49.7260 14.6870 294° West 466 536 38,000  Level FlightAware
04:59AM 49.7680 14.5340 293° West 466 536 38,000  Level FlightAware
05:00AM 49.8060 14.3920 293° West 467 537 38,000  Level FlightAware
05:01AM 49.8320 14.2990 293° West 467 537 38,000  Level FlightAware
05:01AM 49.8680 14.1630 292° West 468 539 38,000  Level FlightAware
05:02AM 49.8900 14.0810 293° West 469 540 38,000  Level FlightAware
05:03AM 49.9330 13.9480 297° West 471 542 38,000  Level FlightAware
05:03AM 49.9700 13.8400 298° West 472 543 38,000  Level FlightAware
05:04AM 50.0110 13.7230 299° West 473 544 38,000  Level FlightAware
05:05AM 50.0510 13.6050 298° West 473 544 38,000  Level FlightAware
05:05AM 50.0890 13.4970 299° West 473 544 38,000  Level FlightAware
05:06AM 50.1390 13.3480 298° West 473 544 38,000  Level FlightAware
05:07AM 50.1970 13.1790 298° West 472 543 38,000  Level FlightAware
05:08AM 50.2330 13.0700 297° West 472 543 38,000  Level FlightAware
05:08AM 50.2720 12.9550 298° West 473 544 38,000  Level FlightAware
05:09AM 50.3100 12.8420 298° West 475 547 38,000  Level FlightAware
05:09AM 50.3530 12.7140 298° West 474 545 38,000  Level FlightAware
05:10AM 50.3980 12.5790 298° West 473 544 38,000  Level FlightAware
05:11AM 50.4380 12.4550 297° West 473 544 38,000  Level FlightAware
05:11AM 50.4690 12.3630 298° West 474 545 38,000  Level FlightAware
05:12AM 50.5070 12.2470 297° West 474 545 38,000  Level FlightAware
05:13AM 50.5520 12.1070 297° West 474 545 38,000  Level FlightAware
05:13AM 50.5870 12.0000 297° West 473 544 38,000  Level FlightAware
05:14AM 50.6260 11.8780 297° West 472 543 38,000  Level FlightAware
05:15AM 50.6700 11.7420 297° West 473 544 38,000  Level FlightAware
05:15AM 50.7100 11.6140 296° West 472 543 38,000  Level FlightAware
05:16AM 50.7420 11.5140 297° West 471 542 38,000  Level FlightAware
05:17AM 50.7930 11.3520 297° West 470 541 38,000  Level FlightAware
05:18AM 50.8310 11.2330 297° West 471 542 38,000  Level FlightAware
05:18AM 50.8740 11.0940 296° West 471 542 38,000  Level FlightAware
05:19AM 50.9120 10.9720 296° West 472 543 38,000  Level FlightAware
05:20AM 50.9560 10.8290 296° West 470 541 38,000  Level FlightAware
05:20AM 50.9940 10.7040 296° West 469 540 38,000  Level FlightAware
05:21AM 51.0220 10.6150 297° West 470 541 38,000  Level FlightAware
05:22AM 51.0740 10.4440 296° West 466 536 38,000  Level FlightAware
05:22AM 51.1130 10.3220 297° West 468 539 38,000  Level FlightAware
05:23AM 51.1580 10.1870 298° West 468 539 38,000  Level FlightAware
05:24AM 51.1910 10.0850 297° West 469 540 38,000  Level FlightAware
05:24AM 51.2320 9.9570 297° West 467 537 38,000  Level FlightAware
05:25AM 51.2800 9.8090 297° West 467 537 38,000  Level FlightAware
05:26AM 51.3200 9.6810 297° West 466 536 38,000  Level FlightAware
05:27AM 51.3600 9.5570 297° West 466 536 38,000  Level FlightAware
05:27AM 51.4040 9.4160 297° West 466 536 38,000  Level FlightAware
05:28AM 51.4420 9.2970 297° West 465 535 38,000  Level FlightAware
05:29AM 51.4810 9.1700 296° West 466 536 38,000  Level FlightAware
05:29AM 51.5220 9.0390 297° West 467 537 38,000  Level FlightAware
05:30AM 51.5560 8.9290 296° West 467 537 38,000  Level FlightAware
05:31AM 51.6050 8.7700 296° West 467 537 38,000  Level FlightAware
05:32AM 51.6430 8.6460 296° West 468 539 38,000  Level FlightAware
05:32AM 51.6810 8.5200 296° West 470 541 38,000  Level FlightAware
05:33AM 51.7280 8.3650 296° West 470 541 38,000  Level FlightAware
05:34AM 51.7670 8.2360 296° West 471 542 38,000  Level FlightAware
05:34AM 51.8040 8.1120 296° West 471 542 38,000  Level FlightAware
05:35AM 51.8460 7.9710 296° West 469 540 38,000  Level FlightAware
05:36AM 51.8830 7.8460 296° West 467 537 38,000  Level FlightAware
05:36AM 51.9210 7.7180 296° West 466 536 38,000  Level FlightAware
05:37AM 51.9600 7.5840 295° West 467 537 38,000  Level FlightAware
05:38AM 51.9900 7.4800 295° West 467 537 38,000  Level FlightAware
05:38AM 52.0260 7.3560 295° West 467 537 38,000  Level FlightAware
05:39AM 52.0620 7.2310 295° West 467 537 38,000  Level FlightAware
05:40AM 52.1030 7.0870 295° West 466 536 38,000  Level FlightAware
05:40AM 52.1410 6.9570 296° West 467 537 38,000  Level FlightAware
05:41AM 52.1760 6.8320 295° West 467 537 38,000  Level FlightAware
05:42AM 52.2180 6.6850 295° West 466 536 38,000  Level FlightAware
05:43AM 52.2490 6.5630 293° West 466 536 38,000  Level FlightAware
05:43AM 52.2870 6.4140 293° West 467 537 38,000  Level FlightAware
05:44AM 52.3200 6.2830 292° West 466 536 38,000  Level FlightAware
05:45AM 52.3580 6.1340 293° West 463 533 38,000  Level FlightAware
05:45AM 52.3910 6.0040 293° West 464 534 38,000  Level FlightAware
05:46AM 52.4230 5.8770 292° West 464 534 38,000  Level FlightAware
05:47AM 52.4600 5.7310 293° West 463 533 38,000 -1,320 Level FlightAware
05:47AM 52.4802 5.6432 293° West 480 552 36,500  Descending FlightAware UK
05:47AM 52.4910 5.6040 293° West 461 531 38,000  Climbing FlightAware
05:48AM 52.5262 5.4699 293° West 480 552 36,500  Descending FlightAware UK
05:48AM 52.5280 5.4560 293° West 459 528 38,000  Climbing FlightAware
05:49AM 52.5478 5.3719 293° West 478 550 36,500  Descending FlightAware UK
05:49AM 52.5590 5.3280 293° West 457 526 38,000  Climbing FlightAware
05:49AM 52.5749 5.2554 293° West 478 550 36,500  Descending FlightAware UK
05:50AM 52.5930 5.1870 293° West 456 525 38,000 1,320 Climbing FlightAware
05:50AM 52.6250 5.0550 292° West 457 526 38,000  Level FlightAware
05:51AM 52.6560 4.9280 292° West 455 524 38,000 -1,500 Level FlightAware
05:51AM 52.6744 4.8509 292° West 478 550 36,500  Descending FlightAware UK
05:52AM 52.6910 4.7830 292° West 454 522 38,000  Climbing FlightAware
05:52AM 52.7113 4.6966 292° West 476 548 36,500  Descending FlightAware UK
05:52AM 52.7220 4.6510 292° West 454 522 38,000  Climbing FlightAware
05:53AM 52.7384 4.5815 292° West 476 548 36,500  Descending FlightAware UK
05:53AM 52.7540 4.5130 292° West 454 522 38,000  Climbing FlightAware
05:54AM 52.7839 4.3881 292° West 476 548 36,500  Descending FlightAware UK
05:54AM 52.7850 4.3800 292° West 455 524 38,000  Climbing FlightAware
05:54AM 52.8109 4.2718 292° West 476 548 36,500  Descending FlightAware UK
05:54AM 52.8160 4.2490 292° West 454 522 38,000 1,620 Climbing FlightAware
05:55AM 52.8490 4.1060 291° West 455 524 38,000  Level FlightAware
05:56AM 52.8800 3.9700 291° West 456 525 38,000 -1,440 Level FlightAware
05:56AM 52.8999 3.8822 291° West 474 545 36,500  Descending FlightAware UK
05:57AM 52.9130 3.8280 291° West 458 527 38,000  Climbing FlightAware
05:57AM 52.9315 3.7450 291° West 474 545 36,500  Descending FlightAware UK
05:57AM 52.9420 3.6980 291° West 460 529 38,000  Climbing FlightAware
05:58AM 52.9583 3.6265 291° West 474 545 36,500 -2,520 Descending FlightAware UK
05:58AM 52.9718 3.5670 291° West 476 548 36,500 4,080 Level FlightAware UK
05:58AM 52.9700 3.5730 291° West 461 531 38,000  Climbing FlightAware
05:58AM 52.9895 3.4876 291° West 476 548 36,500  Descending FlightAware UK
05:59AM 53.0050 3.4170 291° West 460 529 38,000 1,380 Climbing FlightAware
05:59AM 53.0350 3.2860 291° West 460 529 38,000 -1,560 Level FlightAware
06:00AM 53.0512 3.2104 291° West 478 550 36,500 -2,460 Descending FlightAware UK
06:00AM 53.0642 3.1510 290° West 478 550 36,500 3,420 Level FlightAware UK
06:00AM 53.0680 3.1350 290° West 459 528 38,000  Climbing FlightAware
06:00AM 53.0816 3.0717 290° West 470 541 36,500  Descending FlightAware UK
06:01AM 53.0970 3.0010 290° West 460 529 38,000  Climbing FlightAware
06:01AM 53.1118 2.9328 290° West 474 545 36,500  Descending FlightAware UK
06:01AM 53.1260 2.8710 290° West 461 531 38,000  Climbing FlightAware
06:02AM 53.1466 2.7731 290° West 478 550 36,500  Descending FlightAware UK
06:02AM 53.1590 2.7180 290° West 460 529 38,000 1,500 Climbing FlightAware
06:03AM 53.1880 2.5840 290° West 460 529 38,000 -1,560 Level FlightAware
06:03AM 53.2021 2.5126 290° West 474 545 36,500 -2,520 Descending FlightAware UK
06:03AM 53.2112 2.4516 284° West 470 541 36,500 3,420 Level FlightAware UK
06:04AM 53.2140 2.4330 284° West 461 531 38,000  Climbing FlightAware
06:04AM 53.2222 2.3685 284° West 474 545 36,500  Descending FlightAware UK
06:04AM 53.2310 2.2980 284° West 462 532 38,000 1,380 Climbing FlightAware
06:05AM 53.2490 2.1560 282° West 462 532 38,000 -1,560 Level FlightAware
06:05AM 53.2586 2.0761 282° West 476 548 36,500  Descending FlightAware UK
06:06AM 53.2680 1.9960 282° West 463 533 38,000  Climbing FlightAware
06:06AM 53.2762 1.9297 282° West 476 548 36,500 -2,700 Descending FlightAware UK
06:06AM 53.2839 1.8674 282° West 476 548 36,500 3,720 Level FlightAware UK
06:06AM 53.2850 1.8610 282° West 462 532 38,000 3,180 Climbing FlightAware
06:07AM 53.2954 1.7733 281° West 462 532 38,000 -2,160 Level FlightAware ADS-B
06:07AM 53.3042 1.7004 281° West 478 550 36,500 -2,400 Descending FlightAware UK
06:07AM 53.3118 1.6376 281° West 476 548 36,500 3,720 Level FlightAware UK
06:07AM 53.3141 1.6167 281° West 463 533 38,000  Climbing FlightAware ADS-B
06:08AM 53.3216 1.5543 281° West 478 550 36,500  Descending FlightAware UK
06:08AM 53.3266 1.5111 281° West 462 532 38,000  Climbing FlightAware ADS-B
06:08AM 53.3340 1.4487 281° West 476 548 36,500  Descending FlightAware UK
06:09AM 53.3424 1.3967 281° West 462 532 38,000 960 Climbing FlightAware ADS-B
06:09AM 53.3598 1.2825 284° West 472 543 37,300 -3,480 Descending FlightAware ADS-B
06:09AM 53.3692 1.2196 284° West 470 541 35,100 -2,100 Descending FlightAware UK
06:10AM 53.3820 1.1270 284° West 469 540 35,700 -2,820 Climbing FlightAware
06:10AM 53.3965 1.0294 284° West 468 539 32,600 -2,820 Descending FlightAware UK
06:11AM 53.4040 0.9730 284° West 469 540 33,600 -2,040 Climbing FlightAware
06:11AM 53.4173 0.8811 284° West 454 522 31,200 -2,100 Descending FlightAware UK
06:11AM 53.4250 0.8260 284° West 456 525 32,200 -2,100 Climbing FlightAware
06:12AM 53.4372 0.7388 284° West 444 511 29,800 -1,980 Descending FlightAware UK
06:12AM 53.4440 0.6900 284° West 446 513 30,900 -2,040 Climbing FlightAware
06:12AM 53.4567 0.5981 284° West 432 497 28,400 -2,040 Descending FlightAware UK
06:13AM 53.4650 0.5380 284° West 434 499 29,400 -1,860 Climbing FlightAware
06:13AM 53.4756 0.4613 284° West 416 479 27,100 -4,320 Descending FlightAware UK
06:13AM 53.4831 0.4041 283° West 418 481 26,600 3,420 Descending FlightAware UK
06:13AM 53.4830 0.4080 283° West 426 490 28,200 9,300 Climbing FlightAware
06:14AM 53.4870 0.3752 282° West 427 491 28,000 -4,740 Descending FlightAware ADS-B
06:14AM 53.4936 0.3261 282° West 422 486 26,400 -1,140 Descending FlightAware UK
06:14AM 53.4964 0.3056 282° West 426 490 27,600 -1,860 Climbing FlightAware ADS-B
06:14AM 53.5093 0.2107 282° West 420 483 25,300 -1,380 Descending FlightAware UK
06:14AM 53.5118 0.1908 282° West 432 497 26,800 -1,140 Climbing FlightAware ADS-B
06:15AM 53.5299 0.0549 282° West 420 483 24,400 -1,080 Descending FlightAware UK
06:16AM 53.5420 -0.0340 282° West 418 481 25,500 -1,140 Climbing FlightAware
06:16AM 53.5527 -0.1166 282° West 404 465 23,400 -720 Descending FlightAware UK
06:16AM 53.5600 -0.1750 282° West 411 473 25,000 1,500 Climbing FlightAware
06:17AM 53.5760 -0.2980 282° West 411 473 25,000 -1,380 Level FlightAware
06:18AM 53.5890 -0.3966 282° West 402 463 23,500 -480 Descending FlightAware UK
06:18AM 53.5930 -0.4240 282° West 406 467 24,700 -2,040 Climbing FlightAware
06:18AM 53.6031 -0.5067 282° West 398 458 22,300 -1,920 Descending FlightAware UK
06:19AM 53.6110 -0.5650 282° West 399 459 23,300 -960 Climbing FlightAware
06:19AM 53.6237 -0.6691 282° West 392 451 21,500 -480 Descending FlightAware UK
06:19AM 53.6260 -0.6840 282° West 392 451 23,000  Climbing FlightAware
06:20AM 53.6350 -0.7586 282° West 396 456 21,500  Descending FlightAware UK
06:20AM 53.6420 -0.8150 282° West 394 453 23,000  Climbing FlightAware
06:20AM 53.6508 -0.8843 282° West 394 453 21,500  Descending FlightAware UK
06:21AM 53.6580 -0.9390 282° West 392 451 23,000  Climbing FlightAware
06:21AM 53.6664 -1.0098 282° West 392 451 21,500 -3,300 Descending FlightAware UK
06:21AM 53.6728 -1.0626 281° West 388 447 21,000 2,820 Descending FlightAware UK
06:21AM 53.6720 -1.0580 281° West 386 444 22,500 -2,040 Climbing FlightAware
06:22AM 53.6838 -1.1502 281° West 384 442 20,000 -2,040 Descending FlightAware UK
06:22AM 53.6900 -1.1970 281° West 381 438 21,000 -1,860 Climbing FlightAware
06:22AM 53.6976 -1.2535 281° West 382 440 18,900 -1,500 Descending FlightAware UK
06:23AM 53.7050 -1.3090 281° West 370 426 20,000 960 Climbing FlightAware
06:23AM 53.7230 -1.4320 284° West 368 423 20,000  Level FlightAware
06:24AM 53.7460 -1.4950 302° West 365 420 20,000 -1,920 Level FlightAware
06:24AM 53.7782 -1.5344 302° West 380 437 18,500  Descending FlightAware UK
06:25AM 53.8020 -1.5570 302° West 363 418 20,000 540 Climbing FlightAware
06:25AM 53.8680 -1.6190 331° Northwest 356 410 19,100 -2,820 Descending FlightAware
06:26AM 53.9004 -1.6483 331° Northwest 370 426 16,900 -1,680 Descending FlightAware UK
06:26AM 53.9200 -1.6660 331° Northwest 351 404 18,000 -1,860 Climbing FlightAware
06:26AM 53.9596 -1.7041 331° Northwest 360 414 15,600 -2,040 Descending FlightAware UK
06:27AM 53.9880 -1.7310 331° Northwest 352 405 16,500 360 Climbing FlightAware
06:27AM 54.0450 -1.7850 331° Northwest 350 403 16,000 -2,160 Descending FlightAware
06:28AM 54.0703 -1.8089 331° Northwest 354 407 14,500 -2,280 Descending FlightAware UK
06:28AM 54.1044 -1.8410 331° Northwest 356 410 14,500 3,720 Level FlightAware UK
06:28AM 54.1020 -1.8370 331° Northwest 352 405 16,000 6,000 Climbing FlightAware
06:28AM 54.1240 -1.8460 347° North 352 405 16,000 -2,160 Level FlightAware
06:29AM 54.1732 -1.8512 347° North 354 407 14,500  Descending FlightAware UK
06:29AM 54.2000 -1.8530 347° North 360 414 16,000 1,020 Climbing FlightAware
06:30AM 54.1410 -1.8490 178° South 357 411 15,500 -2,820 Descending FlightAware
06:30AM 54.3019 -1.8428 178° South 348 400 13,200 -4,320 Descending FlightAware UK
06:30AM 54.3314 -1.8357 North 342 394 12,800 3,300 Descending FlightAware UK
06:30AM 54.3310 -1.8360 North 355 409 14,300 -1,380 Climbing FlightAware
06:31AM 54.3605 -1.8283 North 342 394 12,400 -3,480 Descending FlightAware UK
06:31AM 54.3992 -1.8183 North 338 389 12,000 2,040 Descending FlightAware UK
06:31AM 54.4030 -1.8180 North 352 405 13,400 480 Climbing FlightAware
06:32AM 54.4660 -1.7990 10° North 344 396 12,400 -3,180 Descending FlightAware
06:32AM 54.4939 -1.7908 10° North 334 384 10,500 -4,200 Descending FlightAware UK
06:32AM 54.5214 -1.7818 11° North 324 373 10,100 2,640 Descending FlightAware UK
06:32AM 54.5260 -1.7800 11° North 333 383 11,600 -1,260 Climbing FlightAware
06:33AM 54.5576 -1.7706 11° North 314 361 9,600 -3,420 Descending FlightAware UK
06:33AM 54.5929 -1.7600 10° North 302 348 9,300 2,520 Descending FlightAware UK
06:33AM 54.5950 -1.7590 10° North 316 364 10,800 1,500 Climbing FlightAware
06:34AM 54.6470 -1.7430 10° North 298 343 10,400 -2,220 Descending FlightAware
06:34AM 54.6897 -1.7237 10° North 280 322 8,300 -1,020 Descending FlightAware UK
06:34AM 54.6890 -1.7240 10° North 294 338 9,900 2,400 Climbing FlightAware
06:35AM 54.7170 -1.6970 29° Northeast 291 335 9,400 -3,600 Descending FlightAware
06:35AM 54.7388 -1.6739 29° Northeast 274 315 7,500 -1,200 Descending FlightAware UK
06:35AM 54.7350 -1.6780 29° Northeast 290 334 9,100 2,640 Climbing FlightAware
06:35AM 54.7650 -1.6480 30° Northeast 287 330 8,600 -3,480 Descending FlightAware
06:36AM 54.7872 -1.6253 30° Northeast 272 313 6,700 -1,200 Descending FlightAware UK
06:36AM 54.8000 -1.6140 30° Northeast 282 325 8,000 1,440 Climbing FlightAware
06:36AM 54.8220 -1.5920 30° Northeast 275 316 7,500 -4,500 Descending FlightAware
06:37AM 54.8401 -1.5749 30° Northeast 258 297 5,400 -2,400 Descending FlightAware UK
06:37AM 54.8510 -1.5650 30° Northeast 275 316 6,500 2,700 Climbing FlightAware
06:37AM 54.8620 -1.5540 30° Northeast 278 320 6,300 -3,660 Descending FlightAware
06:37AM 54.8941 -1.5223 30° Northeast 258 297 4,200 -1,200 Descending FlightAware UK
06:37AM 54.8950 -1.5210 30° Northeast 275 316 5,700 -1,020 Climbing FlightAware
06:38AM 54.9140 -1.5021 30° Northeast 260 299 3,900 -1,020 Descending FlightAware UK
06:38AM 54.9270 -1.4880 30° Northeast 273 314 5,200 900 Climbing FlightAware
06:38AM 54.9590 -1.4550 31° Northeast 259 298 4,600 -2,700 Descending FlightAware
06:39AM 54.9821 -1.4307 31° Northeast 230 265 2,900 -2,880 Descending FlightAware UK
06:39AM 55.0003 -1.4117 31° Northeast 226 260 2,700 1,200 Descending FlightAware UK
06:40AM 55.0210 -1.3930 31° Northeast 231 266 3,900 1,080 Climbing FlightAware
06:40AM 55.0480 -1.3980 354° North 195 224 3,700 -2,760 Descending FlightAware
06:40AM 55.0722 -1.4103 354° North 188 216 1,700 -1,020 Descending FlightAware UK
06:40AM 55.0740 -1.4110 354° North 181 208 3,200 1,740 Climbing FlightAware
06:41AM 55.0850 -1.4300 315° West 162 186 2,800 -780 Descending FlightAware
06:41AM 55.0870 -1.4430 285° West 163 188 2,700 -600 Descending FlightAware
06:41AM 55.0900 -1.4580 289° West 170 196 2,600 -4,320 Descending FlightAware
06:42AM 55.0909 -1.4953 289° West 1 1 900 -540 Descending FlightAware UK
06:42AM 55.0850 -1.5140 289° West 162 186 2,300 2,220 Climbing FlightAware
06:42AM 55.0800 -1.5310 243° Southwest 155 178 2,200 -3,540 Descending FlightAware
06:42AM 55.0745 -1.5567 243° Southwest 1 1 300 -720 Descending FlightAware UK
06:43AM 55.0730 -1.5570 243° Southwest 141 162 1,900 1,980 Climbing FlightAware
06:43AM 55.0660 -1.5850 246° West 124 143 1,500 -840 Descending FlightAware
06:43AM 55.0620 -1.5990 243° Southwest 124 143 1,300 -600 Descending FlightAware
06:44AM 55.0560 -1.6220 246° West 124 143 1,100 -660 Descending FlightAware
06:44AM 55.0490 -1.6470 244° Southwest 127 146 700 -420 Descending FlightAware
06:45AM 55.0420 -1.6740 246° West 128 147 700  Level FlightAware
06:48AM 55.0375 -1.6917 62° Northeast  Level Estimated
06:49AM 55.0375 -1.6917 90° East  Level Estimated
06:50AM 55.0375 -1.6917 90° East  Level Estimated
06:51AM 55.0375 -1.6917 90° East  Level Estimated
06:52AM 55.0375 -1.6917 90° East  Level Estimated
06:53AM 55.0375 -1.6917 90° East  Level Estimated
06:54AM 55.0375 -1.6917 90° East  Level Estimated
06:55AM 55.0375 -1.6917 90° East  Level Estimated
06:56AM 55.0375 -1.6917 90° East  Level Estimated
06:57AM 55.0375 -1.6917 90° East  Level Estimated